sensor_id;sensor_type;location;lat;lon;timestamp;P1;durP1;ratioP1;P2;durP2;ratioP2
22646;SDS011;11490;42.726;23.268;2024-03-02T00:00:07;28.73;;;12.35;;
22646;SDS011;11490;42.726;23.268;2024-03-02T00:02:41;20.75;;;12.13;;
22646;SDS011;11490;42.726;23.268;2024-03-02T00:05:08;19.55;;;11.82;;
22646;SDS011;11490;42.726;23.268;2024-03-02T00:07:36;17.35;;;10.38;;
22646;SDS011;11490;42.726;23.268;2024-03-02T00:10:04;22.77;;;12.65;;
22646;SDS011;11490;42.726;23.268;2024-03-02T00:12:35;21.08;;;11.88;;
22646;SDS011;11490;42.726;23.268;2024-03-02T00:15:01;24.10;;;12.18;;
22646;SDS011;11490;42.726;23.268;2024-03-02T00:17:27;19.92;;;13.32;;
22646;SDS011;11490;42.726;23.268;2024-03-02T00:19:54;24.27;;;13.38;;
22646;SDS011;11490;42.726;23.268;2024-03-02T00:22:20;26.55;;;14.15;;
22646;SDS011;11490;42.726;23.268;2024-03-02T00:24:45;19.63;;;11.00;;
22646;SDS011;11490;42.726;23.268;2024-03-02T00:27:12;23.90;;;12.15;;
22646;SDS011;11490;42.726;23.268;2024-03-02T00:29:39;20.55;;;11.00;;
22646;SDS011;11490;42.726;23.268;2024-03-02T00:32:09;23.00;;;11.63;;
22646;SDS011;11490;42.726;23.268;2024-03-02T00:34:38;20.00;;;12.75;;
22646;SDS011;11490;42.726;23.268;2024-03-02T00:37:04;17.20;;;11.15;;
22646;SDS011;11490;42.726;23.268;2024-03-02T00:39:29;23.80;;;12.35;;
22646;SDS011;11490;42.726;23.268;2024-03-02T00:41:55;21.63;;;10.15;;
22646;SDS011;11490;42.726;23.268;2024-03-02T00:44:20;16.70;;;10.50;;
22646;SDS011;11490;42.726;23.268;2024-03-02T00:46:51;23.48;;;12.55;;
22646;SDS011;11490;42.726;23.268;2024-03-02T00:49:22;23.70;;;13.80;;
22646;SDS011;11490;42.726;23.268;2024-03-02T00:51:49;21.00;;;11.90;;
22646;SDS011;11490;42.726;23.268;2024-03-02T00:54:20;22.23;;;11.05;;
22646;SDS011;11490;42.726;23.268;2024-03-02T00:56:48;18.88;;;10.77;;
22646;SDS011;11490;42.726;23.268;2024-03-02T00:59:14;23.00;;;11.90;;
22646;SDS011;11490;42.726;23.268;2024-03-02T01:01:39;25.25;;;12.27;;
22646;SDS011;11490;42.726;23.268;2024-03-02T01:04:05;21.05;;;12.18;;
22646;SDS011;11490;42.726;23.268;2024-03-02T01:06:30;30.70;;;14.25;;
22646;SDS011;11490;42.726;23.268;2024-03-02T01:08:56;20.77;;;12.63;;
22646;SDS011;11490;42.726;23.268;2024-03-02T01:11:21;24.42;;;10.85;;
22646;SDS011;11490;42.726;23.268;2024-03-02T01:13:47;24.58;;;13.43;;
22646;SDS011;11490;42.726;23.268;2024-03-02T01:16:12;21.98;;;12.32;;
22646;SDS011;11490;42.726;23.268;2024-03-02T01:18:38;21.08;;;12.07;;
22646;SDS011;11490;42.726;23.268;2024-03-02T01:21:03;22.25;;;11.93;;
22646;SDS011;11490;42.726;23.268;2024-03-02T01:23:29;19.17;;;11.35;;
22646;SDS011;11490;42.726;23.268;2024-03-02T01:25:54;30.65;;;12.80;;
22646;SDS011;11490;42.726;23.268;2024-03-02T01:28:20;23.35;;;11.30;;
22646;SDS011;11490;42.726;23.268;2024-03-02T01:30:46;19.40;;;11.57;;
22646;SDS011;11490;42.726;23.268;2024-03-02T01:33:12;27.52;;;13.88;;
22646;SDS011;11490;42.726;23.268;2024-03-02T01:35:37;20.70;;;12.00;;
22646;SDS011;11490;42.726;23.268;2024-03-02T01:38:03;20.73;;;11.98;;
22646;SDS011;11490;42.726;23.268;2024-03-02T01:40:28;22.42;;;11.15;;
22646;SDS011;11490;42.726;23.268;2024-03-02T01:42:54;19.20;;;11.77;;
22646;SDS011;11490;42.726;23.268;2024-03-02T01:45:20;27.85;;;12.48;;
22646;SDS011;11490;42.726;23.268;2024-03-02T01:47:46;25.45;;;12.30;;
22646;SDS011;11490;42.726;23.268;2024-03-02T01:50:12;22.90;;;12.50;;
22646;SDS011;11490;42.726;23.268;2024-03-02T01:52:38;21.45;;;11.40;;
22646;SDS011;11490;42.726;23.268;2024-03-02T01:55:04;22.85;;;13.38;;
22646;SDS011;11490;42.726;23.268;2024-03-02T01:57:30;23.58;;;12.00;;
22646;SDS011;11490;42.726;23.268;2024-03-02T01:59:56;24.20;;;11.70;;
22646;SDS011;11490;42.726;23.268;2024-03-02T02:02:22;29.45;;;12.40;;
22646;SDS011;11490;42.726;23.268;2024-03-02T02:04:47;23.25;;;11.55;;
22646;SDS011;11490;42.726;23.268;2024-03-02T02:07:12;26.20;;;10.98;;
22646;SDS011;11490;42.726;23.268;2024-03-02T02:09:39;21.50;;;11.00;;
22646;SDS011;11490;42.726;23.268;2024-03-02T02:12:06;24.63;;;10.85;;
22646;SDS011;11490;42.726;23.268;2024-03-02T02:14:32;17.45;;;11.35;;
22646;SDS011;11490;42.726;23.268;2024-03-02T02:16:58;18.38;;;10.68;;
22646;SDS011;11490;42.726;23.268;2024-03-02T02:19:24;19.08;;;11.18;;
22646;SDS011;11490;42.726;23.268;2024-03-02T02:21:49;18.88;;;12.23;;
22646;SDS011;11490;42.726;23.268;2024-03-02T02:24:14;17.65;;;10.63;;
22646;SDS011;11490;42.726;23.268;2024-03-02T02:26:49;23.48;;;11.48;;
22646;SDS011;11490;42.726;23.268;2024-03-02T02:29:53;18.85;;;10.98;;
22646;SDS011;11490;42.726;23.268;2024-03-02T02:32:21;18.15;;;11.35;;
22646;SDS011;11490;42.726;23.268;2024-03-02T02:35:34;22.35;;;11.75;;
22646;SDS011;11490;42.726;23.268;2024-03-02T02:38:51;22.33;;;10.18;;
22646;SDS011;11490;42.726;23.268;2024-03-02T02:44:47;19.35;;;10.32;;
22646;SDS011;11490;42.726;23.268;2024-03-02T02:51:22;19.05;;;10.57;;
22646;SDS011;11490;42.726;23.268;2024-03-02T02:53:48;20.20;;;10.52;;
22646;SDS011;11490;42.726;23.268;2024-03-02T02:56:14;19.13;;;11.38;;
22646;SDS011;11490;42.726;23.268;2024-03-02T02:58:40;19.95;;;10.93;;
22646;SDS011;11490;42.726;23.268;2024-03-02T03:01:06;20.25;;;11.63;;
22646;SDS011;11490;42.726;23.268;2024-03-02T03:03:32;26.85;;;11.82;;
22646;SDS011;11490;42.726;23.268;2024-03-02T03:05:58;27.02;;;10.98;;
22646;SDS011;11490;42.726;23.268;2024-03-02T03:08:23;20.73;;;10.88;;
22646;SDS011;11490;42.726;23.268;2024-03-02T03:10:49;17.77;;;10.73;;
22646;SDS011;11490;42.726;23.268;2024-03-02T03:13:14;21.42;;;11.05;;
22646;SDS011;11490;42.726;23.268;2024-03-02T03:15:40;17.35;;;10.38;;
22646;SDS011;11490;42.726;23.268;2024-03-02T03:18:05;22.42;;;11.50;;
22646;SDS011;11490;42.726;23.268;2024-03-02T03:20:32;18.08;;;10.45;;
22646;SDS011;11490;42.726;23.268;2024-03-02T03:22:58;21.08;;;11.88;;
22646;SDS011;11490;42.726;23.268;2024-03-02T03:25:24;22.10;;;11.82;;
22646;SDS011;11490;42.726;23.268;2024-03-02T03:27:50;20.10;;;11.48;;
22646;SDS011;11490;42.726;23.268;2024-03-02T03:30:17;24.67;;;12.80;;
22646;SDS011;11490;42.726;23.268;2024-03-02T03:32:43;27.60;;;11.82;;
22646;SDS011;11490;42.726;23.268;2024-03-02T03:35:08;27.83;;;13.95;;
22646;SDS011;11490;42.726;23.268;2024-03-02T03:37:34;23.15;;;12.55;;
22646;SDS011;11490;42.726;23.268;2024-03-02T03:39:59;24.92;;;12.05;;
22646;SDS011;11490;42.726;23.268;2024-03-02T03:42:26;18.98;;;12.35;;
22646;SDS011;11490;42.726;23.268;2024-03-02T03:44:51;19.90;;;12.30;;
22646;SDS011;11490;42.726;23.268;2024-03-02T03:47:17;27.40;;;12.13;;
22646;SDS011;11490;42.726;23.268;2024-03-02T03:49:42;23.90;;;12.15;;
22646;SDS011;11490;42.726;23.268;2024-03-02T03:52:07;22.58;;;11.80;;
22646;SDS011;11490;42.726;23.268;2024-03-02T03:54:33;21.38;;;12.77;;
22646;SDS011;11490;42.726;23.268;2024-03-02T03:56:58;24.50;;;11.68;;
22646;SDS011;11490;42.726;23.268;2024-03-02T03:59:24;21.23;;;10.48;;
22646;SDS011;11490;42.726;23.268;2024-03-02T04:01:49;24.70;;;12.05;;
22646;SDS011;11490;42.726;23.268;2024-03-02T04:04:14;26.92;;;12.02;;
22646;SDS011;11490;42.726;23.268;2024-03-02T04:06:40;20.95;;;12.23;;
22646;SDS011;11490;42.726;23.268;2024-03-02T04:09:05;26.25;;;12.45;;
22646;SDS011;11490;42.726;23.268;2024-03-02T04:11:31;20.63;;;11.55;;
22646;SDS011;11490;42.726;23.268;2024-03-02T04:13:56;20.10;;;12.15;;
22646;SDS011;11490;42.726;23.268;2024-03-02T04:16:21;25.60;;;12.15;;
22646;SDS011;11490;42.726;23.268;2024-03-02T04:18:47;22.10;;;11.57;;
22646;SDS011;11490;42.726;23.268;2024-03-02T04:21:13;18.40;;;11.23;;
22646;SDS011;11490;42.726;23.268;2024-03-02T04:23:38;29.65;;;11.85;;
22646;SDS011;11490;42.726;23.268;2024-03-02T04:26:03;23.33;;;13.38;;
22646;SDS011;11490;42.726;23.268;2024-03-02T04:28:29;31.40;;;12.45;;
22646;SDS011;11490;42.726;23.268;2024-03-02T04:30:54;19.75;;;11.15;;
22646;SDS011;11490;42.726;23.268;2024-03-02T04:33:20;21.30;;;11.05;;
22646;SDS011;11490;42.726;23.268;2024-03-02T04:35:45;25.42;;;12.20;;
22646;SDS011;11490;42.726;23.268;2024-03-02T04:38:11;29.48;;;17.27;;
22646;SDS011;11490;42.726;23.268;2024-03-02T04:40:37;24.95;;;14.25;;
22646;SDS011;11490;42.726;23.268;2024-03-02T04:43:02;24.45;;;13.02;;
22646;SDS011;11490;42.726;23.268;2024-03-02T04:45:28;27.13;;;12.18;;
22646;SDS011;11490;42.726;23.268;2024-03-02T04:47:54;21.70;;;11.50;;
22646;SDS011;11490;42.726;23.268;2024-03-02T04:50:19;22.58;;;11.55;;
22646;SDS011;11490;42.726;23.268;2024-03-02T04:52:44;26.30;;;13.50;;
22646;SDS011;11490;42.726;23.268;2024-03-02T04:55:10;24.63;;;12.93;;
22646;SDS011;11490;42.726;23.268;2024-03-02T04:57:50;23.83;;;12.27;;
22646;SDS011;11490;42.726;23.268;2024-03-02T05:00:16;21.27;;;12.20;;
22646;SDS011;11490;42.726;23.268;2024-03-02T05:02:42;27.88;;;13.05;;
22646;SDS011;11490;42.726;23.268;2024-03-02T05:05:07;33.97;;;13.85;;
22646;SDS011;11490;42.726;23.268;2024-03-02T05:07:33;25.52;;;13.13;;
22646;SDS011;11490;42.726;23.268;2024-03-02T05:09:58;22.38;;;12.18;;
22646;SDS011;11490;42.726;23.268;2024-03-02T05:12:24;30.33;;;14.45;;
22646;SDS011;11490;42.726;23.268;2024-03-02T05:15:08;33.55;;;11.73;;
22646;SDS011;11490;42.726;23.268;2024-03-02T05:17:37;23.35;;;12.75;;
22646;SDS011;11490;42.726;23.268;2024-03-02T05:20:04;21.13;;;11.52;;
22646;SDS011;11490;42.726;23.268;2024-03-02T05:22:31;19.50;;;11.52;;
22646;SDS011;11490;42.726;23.268;2024-03-02T05:24:56;24.75;;;13.60;;
22646;SDS011;11490;42.726;23.268;2024-03-02T05:27:22;19.20;;;11.52;;
22646;SDS011;11490;42.726;23.268;2024-03-02T05:29:47;17.33;;;11.68;;
22646;SDS011;11490;42.726;23.268;2024-03-02T05:32:13;25.27;;;12.88;;
22646;SDS011;11490;42.726;23.268;2024-03-02T05:34:38;25.00;;;12.50;;
22646;SDS011;11490;42.726;23.268;2024-03-02T05:37:03;23.00;;;13.65;;
22646;SDS011;11490;42.726;23.268;2024-03-02T05:39:29;22.02;;;11.32;;
22646;SDS011;11490;42.726;23.268;2024-03-02T05:41:54;22.58;;;12.32;;
22646;SDS011;11490;42.726;23.268;2024-03-02T05:44:20;20.98;;;12.38;;
22646;SDS011;11490;42.726;23.268;2024-03-02T05:46:45;22.73;;;12.65;;
22646;SDS011;11490;42.726;23.268;2024-03-02T05:49:11;28.77;;;13.30;;
22646;SDS011;11490;42.726;23.268;2024-03-02T05:51:36;24.23;;;13.50;;
22646;SDS011;11490;42.726;23.268;2024-03-02T05:54:02;25.10;;;14.38;;
22646;SDS011;11490;42.726;23.268;2024-03-02T05:56:27;29.65;;;15.20;;
22646;SDS011;11490;42.726;23.268;2024-03-02T05:58:53;38.17;;;16.00;;
22646;SDS011;11490;42.726;23.268;2024-03-02T06:01:44;25.23;;;15.07;;
22646;SDS011;11490;42.726;23.268;2024-03-02T06:04:11;34.33;;;15.75;;
22646;SDS011;11490;42.726;23.268;2024-03-02T06:06:38;26.55;;;15.40;;
22646;SDS011;11490;42.726;23.268;2024-03-02T06:09:04;22.55;;;13.82;;
22646;SDS011;11490;42.726;23.268;2024-03-02T06:11:39;34.15;;;15.05;;
22646;SDS011;11490;42.726;23.268;2024-03-02T06:14:05;26.95;;;14.13;;
22646;SDS011;11490;42.726;23.268;2024-03-02T06:16:32;26.48;;;15.25;;
22646;SDS011;11490;42.726;23.268;2024-03-02T06:18:58;36.53;;;19.45;;
22646;SDS011;11490;42.726;23.268;2024-03-02T06:21:24;44.20;;;20.48;;
22646;SDS011;11490;42.726;23.268;2024-03-02T06:23:50;36.67;;;20.85;;
22646;SDS011;11490;42.726;23.268;2024-03-02T06:26:16;41.25;;;19.10;;
22646;SDS011;11490;42.726;23.268;2024-03-02T06:28:44;35.67;;;16.13;;
22646;SDS011;11490;42.726;23.268;2024-03-02T06:31:10;28.30;;;14.35;;
22646;SDS011;11490;42.726;23.268;2024-03-02T06:33:36;33.17;;;15.77;;
22646;SDS011;11490;42.726;23.268;2024-03-02T06:36:01;35.08;;;17.80;;
22646;SDS011;11490;42.726;23.268;2024-03-02T06:38:27;29.60;;;14.85;;
22646;SDS011;11490;42.726;23.268;2024-03-02T06:40:52;22.98;;;13.40;;
22646;SDS011;11490;42.726;23.268;2024-03-02T06:43:18;28.48;;;14.05;;
22646;SDS011;11490;42.726;23.268;2024-03-02T06:45:48;29.85;;;13.52;;
22646;SDS011;11490;42.726;23.268;2024-03-02T06:48:13;31.38;;;14.70;;
22646;SDS011;11490;42.726;23.268;2024-03-02T06:50:43;28.33;;;13.75;;
22646;SDS011;11490;42.726;23.268;2024-03-02T06:53:09;27.30;;;13.13;;
22646;SDS011;11490;42.726;23.268;2024-03-02T06:55:34;29.88;;;13.48;;
22646;SDS011;11490;42.726;23.268;2024-03-02T06:57:59;26.42;;;13.00;;
22646;SDS011;11490;42.726;23.268;2024-03-02T07:00:25;22.70;;;13.13;;
22646;SDS011;11490;42.726;23.268;2024-03-02T07:02:50;29.52;;;12.50;;
22646;SDS011;11490;42.726;23.268;2024-03-02T07:05:15;22.23;;;12.80;;
22646;SDS011;11490;42.726;23.268;2024-03-02T07:07:41;29.63;;;14.18;;
22646;SDS011;11490;42.726;23.268;2024-03-02T07:10:07;23.17;;;12.85;;
22646;SDS011;11490;42.726;23.268;2024-03-02T07:12:33;23.25;;;13.50;;
22646;SDS011;11490;42.726;23.268;2024-03-02T07:14:58;23.58;;;13.73;;
22646;SDS011;11490;42.726;23.268;2024-03-02T07:17:30;27.13;;;12.57;;
22646;SDS011;11490;42.726;23.268;2024-03-02T07:19:56;26.58;;;15.90;;
22646;SDS011;11490;42.726;23.268;2024-03-02T07:22:22;30.00;;;15.63;;
22646;SDS011;11490;42.726;23.268;2024-03-02T07:24:48;34.78;;;16.63;;
22646;SDS011;11490;42.726;23.268;2024-03-02T07:27:14;51.90;;;24.52;;
22646;SDS011;11490;42.726;23.268;2024-03-02T07:29:40;36.70;;;19.52;;
22646;SDS011;11490;42.726;23.268;2024-03-02T07:32:05;30.90;;;17.08;;
22646;SDS011;11490;42.726;23.268;2024-03-02T07:34:32;28.65;;;13.88;;
22646;SDS011;11490;42.726;23.268;2024-03-02T07:36:57;28.45;;;15.23;;
22646;SDS011;11490;42.726;23.268;2024-03-02T07:39:23;28.88;;;14.30;;
22646;SDS011;11490;42.726;23.268;2024-03-02T07:41:49;27.60;;;13.27;;
22646;SDS011;11490;42.726;23.268;2024-03-02T07:44:14;28.30;;;14.38;;
22646;SDS011;11490;42.726;23.268;2024-03-02T07:46:41;20.83;;;11.13;;
22646;SDS011;11490;42.726;23.268;2024-03-02T07:49:09;37.70;;;14.75;;
22646;SDS011;11490;42.726;23.268;2024-03-02T07:51:35;23.75;;;13.60;;
22646;SDS011;11490;42.726;23.268;2024-03-02T07:54:01;20.60;;;12.02;;
22646;SDS011;11490;42.726;23.268;2024-03-02T07:56:26;30.13;;;14.65;;
22646;SDS011;11490;42.726;23.268;2024-03-02T07:58:52;27.88;;;14.98;;
22646;SDS011;11490;42.726;23.268;2024-03-02T08:01:18;26.73;;;14.10;;
22646;SDS011;11490;42.726;23.268;2024-03-02T08:03:43;28.02;;;13.93;;
22646;SDS011;11490;42.726;23.268;2024-03-02T08:06:18;25.10;;;14.07;;
22646;SDS011;11490;42.726;23.268;2024-03-02T08:08:46;27.38;;;14.80;;
22646;SDS011;11490;42.726;23.268;2024-03-02T08:11:12;23.35;;;13.43;;
22646;SDS011;11490;42.726;23.268;2024-03-02T08:13:37;26.65;;;14.13;;
22646;SDS011;11490;42.726;23.268;2024-03-02T08:16:06;33.47;;;14.13;;
22646;SDS011;11490;42.726;23.268;2024-03-02T08:18:34;30.52;;;14.23;;
22646;SDS011;11490;42.726;23.268;2024-03-02T08:21:00;29.67;;;11.45;;
22646;SDS011;11490;42.726;23.268;2024-03-02T08:23:29;33.80;;;15.07;;
22646;SDS011;11490;42.726;23.268;2024-03-02T08:25:54;20.25;;;11.30;;
22646;SDS011;11490;42.726;23.268;2024-03-02T08:28:22;31.10;;;14.90;;
22646;SDS011;11490;42.726;23.268;2024-03-02T08:30:51;18.65;;;11.32;;
22646;SDS011;11490;42.726;23.268;2024-03-02T08:33:19;28.70;;;13.77;;
22646;SDS011;11490;42.726;23.268;2024-03-02T08:35:47;25.70;;;13.18;;
22646;SDS011;11490;42.726;23.268;2024-03-02T08:38:12;22.38;;;12.07;;
22646;SDS011;11490;42.726;23.268;2024-03-02T08:40:38;27.02;;;13.02;;
22646;SDS011;11490;42.726;23.268;2024-03-02T08:43:03;23.63;;;13.80;;
22646;SDS011;11490;42.726;23.268;2024-03-02T08:45:29;27.27;;;13.30;;
22646;SDS011;11490;42.726;23.268;2024-03-02T08:47:54;23.23;;;13.40;;
22646;SDS011;11490;42.726;23.268;2024-03-02T08:50:19;27.42;;;13.90;;
22646;SDS011;11490;42.726;23.268;2024-03-02T08:52:45;29.33;;;13.45;;
22646;SDS011;11490;42.726;23.268;2024-03-02T08:55:10;17.77;;;12.93;;
22646;SDS011;11490;42.726;23.268;2024-03-02T08:57:36;20.70;;;13.32;;
22646;SDS011;11490;42.726;23.268;2024-03-02T09:00:05;23.30;;;12.32;;
22646;SDS011;11490;42.726;23.268;2024-03-02T09:02:33;21.52;;;12.35;;
22646;SDS011;11490;42.726;23.268;2024-03-02T09:04:59;26.63;;;12.75;;
22646;SDS011;11490;42.726;23.268;2024-03-02T09:07:24;23.83;;;13.13;;
22646;SDS011;11490;42.726;23.268;2024-03-02T09:09:49;23.27;;;11.30;;
22646;SDS011;11490;42.726;23.268;2024-03-02T09:12:15;30.63;;;14.00;;
22646;SDS011;11490;42.726;23.268;2024-03-02T09:14:41;23.80;;;13.20;;
22646;SDS011;11490;42.726;23.268;2024-03-02T09:17:06;22.52;;;12.05;;
22646;SDS011;11490;42.726;23.268;2024-03-02T09:19:33;20.73;;;11.93;;
22646;SDS011;11490;42.726;23.268;2024-03-02T09:21:58;26.05;;;13.15;;
22646;SDS011;11490;42.726;23.268;2024-03-02T09:24:24;28.08;;;11.63;;
22646;SDS011;11490;42.726;23.268;2024-03-02T09:26:49;23.02;;;12.68;;
22646;SDS011;11490;42.726;23.268;2024-03-02T09:29:15;26.65;;;12.23;;
22646;SDS011;11490;42.726;23.268;2024-03-02T09:31:40;26.27;;;13.55;;
22646;SDS011;11490;42.726;23.268;2024-03-02T09:34:09;29.40;;;13.15;;
22646;SDS011;11490;42.726;23.268;2024-03-02T09:36:34;28.27;;;12.88;;
22646;SDS011;11490;42.726;23.268;2024-03-02T09:39:00;28.00;;;13.60;;
22646;SDS011;11490;42.726;23.268;2024-03-02T09:41:25;29.40;;;14.18;;
22646;SDS011;11490;42.726;23.268;2024-03-02T09:43:51;18.58;;;12.55;;
22646;SDS011;11490;42.726;23.268;2024-03-02T09:46:16;26.83;;;13.95;;
22646;SDS011;11490;42.726;23.268;2024-03-02T09:48:46;31.48;;;13.70;;
22646;SDS011;11490;42.726;23.268;2024-03-02T09:51:11;26.13;;;13.20;;
22646;SDS011;11490;42.726;23.268;2024-03-02T09:53:37;21.85;;;13.30;;
22646;SDS011;11490;42.726;23.268;2024-03-02T09:56:03;30.80;;;14.75;;
22646;SDS011;11490;42.726;23.268;2024-03-02T09:58:29;21.15;;;11.50;;
22646;SDS011;11490;42.726;23.268;2024-03-02T10:00:55;24.00;;;13.40;;
22646;SDS011;11490;42.726;23.268;2024-03-02T10:03:20;19.33;;;11.70;;
22646;SDS011;11490;42.726;23.268;2024-03-02T10:05:49;19.98;;;11.63;;
22646;SDS011;11490;42.726;23.268;2024-03-02T10:08:14;29.90;;;13.57;;
22646;SDS011;11490;42.726;23.268;2024-03-02T10:10:40;27.52;;;14.52;;
22646;SDS011;11490;42.726;23.268;2024-03-02T10:13:10;47.28;;;20.92;;
22646;SDS011;11490;42.726;23.268;2024-03-02T10:15:39;60.45;;;26.20;;
22646;SDS011;11490;42.726;23.268;2024-03-02T10:18:18;33.13;;;14.55;;
22646;SDS011;11490;42.726;23.268;2024-03-02T10:20:54;27.20;;;11.75;;
22646;SDS011;11490;42.726;23.268;2024-03-02T10:23:19;29.98;;;12.80;;
22646;SDS011;11490;42.726;23.268;2024-03-02T10:25:45;64.90;;;23.92;;
22646;SDS011;11490;42.726;23.268;2024-03-02T10:28:11;33.15;;;15.95;;
22646;SDS011;11490;42.726;23.268;2024-03-02T10:30:47;25.10;;;14.10;;
22646;SDS011;11490;42.726;23.268;2024-03-02T10:33:14;21.17;;;12.73;;
22646;SDS011;11490;42.726;23.268;2024-03-02T10:35:40;25.13;;;13.68;;
22646;SDS011;11490;42.726;23.268;2024-03-02T10:38:09;26.45;;;12.55;;
22646;SDS011;11490;42.726;23.268;2024-03-02T10:40:36;19.48;;;10.70;;
22646;SDS011;11490;42.726;23.268;2024-03-02T10:43:01;25.95;;;12.35;;
22646;SDS011;11490;42.726;23.268;2024-03-02T10:45:28;26.23;;;12.52;;
22646;SDS011;11490;42.726;23.268;2024-03-02T10:47:54;20.88;;;11.43;;
22646;SDS011;11490;42.726;23.268;2024-03-02T10:50:22;24.48;;;12.85;;
22646;SDS011;11490;42.726;23.268;2024-03-02T10:52:58;24.92;;;12.15;;
22646;SDS011;11490;42.726;23.268;2024-03-02T10:55:30;23.55;;;12.60;;
22646;SDS011;11490;42.726;23.268;2024-03-02T10:57:59;23.40;;;11.57;;
22646;SDS011;11490;42.726;23.268;2024-03-02T11:00:28;22.58;;;12.82;;
22646;SDS011;11490;42.726;23.268;2024-03-02T11:03:10;26.42;;;13.75;;
22646;SDS011;11490;42.726;23.268;2024-03-02T11:05:38;27.35;;;15.07;;
22646;SDS011;11490;42.726;23.268;2024-03-02T11:08:07;22.15;;;12.60;;
22646;SDS011;11490;42.726;23.268;2024-03-02T11:10:45;27.48;;;15.85;;
22646;SDS011;11490;42.726;23.268;2024-03-02T11:13:22;43.55;;;21.73;;
22646;SDS011;11490;42.726;23.268;2024-03-02T11:15:55;29.60;;;15.68;;
22646;SDS011;11490;42.726;23.268;2024-03-02T11:18:24;25.40;;;13.73;;
22646;SDS011;11490;42.726;23.268;2024-03-02T11:20:50;24.15;;;13.45;;
22646;SDS011;11490;42.726;23.268;2024-03-02T11:23:16;26.98;;;12.95;;
22646;SDS011;11490;42.726;23.268;2024-03-02T11:25:41;26.88;;;12.25;;
22646;SDS011;11490;42.726;23.268;2024-03-02T11:28:06;20.92;;;12.30;;
22646;SDS011;11490;42.726;23.268;2024-03-02T11:33:04;20.60;;;12.73;;
22646;SDS011;11490;42.726;23.268;2024-03-02T11:35:34;20.85;;;11.73;;
22646;SDS011;11490;42.726;23.268;2024-03-02T11:38:00;24.45;;;13.80;;
22646;SDS011;11490;42.726;23.268;2024-03-02T11:40:29;22.00;;;11.82;;
22646;SDS011;11490;42.726;23.268;2024-03-02T11:42:59;20.85;;;11.80;;
22646;SDS011;11490;42.726;23.268;2024-03-02T11:45:31;23.45;;;12.50;;
22646;SDS011;11490;42.726;23.268;2024-03-02T11:47:58;19.08;;;11.00;;
22646;SDS011;11490;42.726;23.268;2024-03-02T11:50:34;23.27;;;12.20;;
22646;SDS011;11490;42.726;23.268;2024-03-02T11:53:02;18.90;;;11.48;;
22646;SDS011;11490;42.726;23.268;2024-03-02T11:55:36;21.70;;;10.93;;
22646;SDS011;11490;42.726;23.268;2024-03-02T11:58:05;17.40;;;10.95;;
22646;SDS011;11490;42.726;23.268;2024-03-02T12:00:53;20.48;;;10.68;;
22646;SDS011;11490;42.726;23.268;2024-03-02T12:03:24;29.58;;;12.65;;
22646;SDS011;11490;42.726;23.268;2024-03-02T12:05:52;20.05;;;11.05;;
22646;SDS011;11490;42.726;23.268;2024-03-02T12:08:18;27.60;;;15.52;;
22646;SDS011;11490;42.726;23.268;2024-03-02T12:10:55;23.92;;;13.73;;
22646;SDS011;11490;42.726;23.268;2024-03-02T12:13:31;24.35;;;13.38;;
22646;SDS011;11490;42.726;23.268;2024-03-02T12:16:06;25.48;;;11.68;;
22646;SDS011;11490;42.726;23.268;2024-03-02T12:18:51;27.95;;;14.32;;
22646;SDS011;11490;42.726;23.268;2024-03-02T12:21:20;17.80;;;10.88;;
22646;SDS011;11490;42.726;23.268;2024-03-02T12:23:45;25.45;;;11.65;;
22646;SDS011;11490;42.726;23.268;2024-03-02T12:26:11;22.20;;;10.70;;
22646;SDS011;11490;42.726;23.268;2024-03-02T12:28:36;28.30;;;11.98;;
22646;SDS011;11490;42.726;23.268;2024-03-02T12:31:02;21.52;;;11.45;;
22646;SDS011;11490;42.726;23.268;2024-03-02T12:33:27;19.02;;;10.73;;
22646;SDS011;11490;42.726;23.268;2024-03-02T12:35:54;19.63;;;11.02;;
22646;SDS011;11490;42.726;23.268;2024-03-02T12:38:22;14.98;;;10.02;;
22646;SDS011;11490;42.726;23.268;2024-03-02T12:40:50;21.60;;;11.30;;
22646;SDS011;11490;42.726;23.268;2024-03-02T12:43:17;23.38;;;10.77;;
22646;SDS011;11490;42.726;23.268;2024-03-02T12:45:43;19.70;;;10.63;;
22646;SDS011;11490;42.726;23.268;2024-03-02T12:48:08;21.50;;;10.57;;
22646;SDS011;11490;42.726;23.268;2024-03-02T12:50:33;22.98;;;12.00;;
22646;SDS011;11490;42.726;23.268;2024-03-02T12:52:59;19.98;;;10.70;;
22646;SDS011;11490;42.726;23.268;2024-03-02T12:55:24;24.67;;;11.48;;
22646;SDS011;11490;42.726;23.268;2024-03-02T12:57:51;18.75;;;9.90;;
22646;SDS011;11490;42.726;23.268;2024-03-02T13:00:17;22.17;;;10.15;;
22646;SDS011;11490;42.726;23.268;2024-03-02T13:02:45;16.25;;;10.85;;
22646;SDS011;11490;42.726;23.268;2024-03-02T13:05:11;16.73;;;9.50;;
22646;SDS011;11490;42.726;23.268;2024-03-02T13:07:39;27.10;;;11.27;;
22646;SDS011;11490;42.726;23.268;2024-03-02T13:10:07;19.73;;;10.95;;
22646;SDS011;11490;42.726;23.268;2024-03-02T13:12:34;21.70;;;11.27;;
22646;SDS011;11490;42.726;23.268;2024-03-02T13:15:00;17.60;;;10.88;;
22646;SDS011;11490;42.726;23.268;2024-03-02T13:17:27;17.17;;;11.15;;
22646;SDS011;11490;42.726;23.268;2024-03-02T13:22:20;20.45;;;10.93;;
22646;SDS011;11490;42.726;23.268;2024-03-02T13:24:46;19.00;;;9.82;;
22646;SDS011;11490;42.726;23.268;2024-03-02T13:27:12;16.25;;;9.98;;
22646;SDS011;11490;42.726;23.268;2024-03-02T13:29:37;21.65;;;9.82;;
22646;SDS011;11490;42.726;23.268;2024-03-02T13:32:03;19.02;;;10.18;;
22646;SDS011;11490;42.726;23.268;2024-03-02T13:34:29;26.40;;;11.38;;
22646;SDS011;11490;42.726;23.268;2024-03-02T13:36:54;26.95;;;13.20;;
22646;SDS011;11490;42.726;23.268;2024-03-02T13:39:19;17.88;;;10.68;;
22646;SDS011;11490;42.726;23.268;2024-03-02T13:41:45;19.27;;;9.43;;
22646;SDS011;11490;42.726;23.268;2024-03-02T13:44:17;16.95;;;9.32;;
22646;SDS011;11490;42.726;23.268;2024-03-02T13:46:46;16.90;;;9.77;;
22646;SDS011;11490;42.726;23.268;2024-03-02T13:49:13;18.00;;;9.85;;
22646;SDS011;11490;42.726;23.268;2024-03-02T13:51:39;15.23;;;9.18;;
22646;SDS011;11490;42.726;23.268;2024-03-02T13:54:04;18.50;;;11.07;;
22646;SDS011;11490;42.726;23.268;2024-03-02T13:56:30;13.40;;;9.85;;
22646;SDS011;11490;42.726;23.268;2024-03-02T13:58:57;22.10;;;10.80;;
22646;SDS011;11490;42.726;23.268;2024-03-02T14:01:23;18.02;;;10.85;;
22646;SDS011;11490;42.726;23.268;2024-03-02T14:03:48;23.23;;;12.02;;
22646;SDS011;11490;42.726;23.268;2024-03-02T14:06:13;21.02;;;12.82;;
22646;SDS011;11490;42.726;23.268;2024-03-02T14:08:39;26.60;;;14.27;;
22646;SDS011;11490;42.726;23.268;2024-03-02T14:11:04;42.47;;;22.23;;
22646;SDS011;11490;42.726;23.268;2024-03-02T14:13:30;92.45;;;35.05;;
22646;SDS011;11490;42.726;23.268;2024-03-02T14:15:55;47.92;;;21.02;;
22646;SDS011;11490;42.726;23.268;2024-03-02T14:18:21;32.13;;;15.73;;
22646;SDS011;11490;42.726;23.268;2024-03-02T14:20:46;30.75;;;14.85;;